createdAt,value
2022-10-30T00:00:44.256Z,69.05
2022-10-30T00:03:13.306Z,69.65
2022-10-30T00:05:48.686Z,69.42
2022-10-30T00:08:17.537Z,69.19
2022-10-30T00:10:45.194Z,69.08
2022-10-30T00:13:13.382Z,70.05
2022-10-30T00:15:40.147Z,69.89
2022-10-30T00:18:06.757Z,69.76
2022-10-30T00:20:36.197Z,69.56
2022-10-30T00:23:02.766Z,69.15
2022-10-30T00:25:29.516Z,70.02
2022-10-30T00:27:56.087Z,70.07
2022-10-30T00:30:22.710Z,70.91
2022-10-30T00:32:49.350Z,72.16
2022-10-30T00:35:16.364Z,71.92
2022-10-30T00:37:42.959Z,71.36
2022-10-30T00:40:16.400Z,72.42
2022-10-30T00:42:43.525Z,70.86
2022-10-30T00:45:15.979Z,70.75
2022-10-30T00:47:52.508Z,71.17
2022-10-30T00:53:05.543Z,71.12
2022-10-30T00:55:37.889Z,71.50
2022-10-30T00:58:08.516Z,71.45
2022-10-30T01:00:37.116Z,71.40
2022-10-30T01:03:04.578Z,72.06
2022-10-30T01:05:33.650Z,71.58
2022-10-30T01:08:00.530Z,71.73
2022-10-30T01:10:27.524Z,72.12
2022-10-30T01:12:56.876Z,73.16
2022-10-30T01:15:29.223Z,72.20
2022-10-30T01:18:21.923Z,73.73
2022-10-30T01:21:22.812Z,72.56
2022-10-30T01:24:26.413Z,72.28
2022-10-30T01:27:09.008Z,72.28
2022-10-30T01:29:38.260Z,72.38
2022-10-30T01:32:40.634Z,74.07
2022-10-30T01:35:28.878Z,72.50
2022-10-30T01:38:03.684Z,72.70
2022-10-30T01:40:30.324Z,72.17
2022-10-30T01:42:58.241Z,72.43
2022-10-30T01:45:57.548Z,72.74
2022-10-30T01:48:43.573Z,73.18
2022-10-30T01:51:47.846Z,72.85
2022-10-30T01:54:33.033Z,73.35
2022-10-30T01:57:15.989Z,73.57
2022-10-30T02:00:02.332Z,73.45
2022-10-30T02:02:40.645Z,74.33
2022-10-30T02:05:13.910Z,74.36
2022-10-30T02:07:40.502Z,74.63
2022-10-30T02:10:11.966Z,75.65
2022-10-30T02:12:39.329Z,76.13
2022-10-30T02:15:06.315Z,77.25
2022-10-30T02:17:32.927Z,76.76
2022-10-30T02:19:59.484Z,77.01
2022-10-30T02:22:26.442Z,77.37
2022-10-30T02:24:53.082Z,77.64
2022-10-30T02:27:23.699Z,80.27
2022-10-30T02:29:50.307Z,80.72
2022-10-30T02:32:16.922Z,80.17
2022-10-30T02:34:44.296Z,79.70
2022-10-30T02:37:11.035Z,80.55
2022-10-30T02:39:39.128Z,81.05
2022-10-30T02:42:05.847Z,80.72
2022-10-30T02:44:32.462Z,83.15
2022-10-30T02:46:59.582Z,84.03
2022-10-30T02:49:26.730Z,83.98
2022-10-30T02:51:53.377Z,83.75
2022-10-30T02:54:19.972Z,84.14
2022-10-30T02:56:47.825Z,83.47
2022-10-30T02:59:14.653Z,83.71
2022-10-30T03:01:41.378Z,83.99
2022-10-30T03:04:08.772Z,84.32
2022-10-30T03:06:35.427Z,85.52
2022-10-30T03:09:02.062Z,85.78
2022-10-30T03:11:28.730Z,85.57
2022-10-30T03:13:55.516Z,85.31
2022-10-30T03:16:24.305Z,84.59
2022-10-30T03:18:52.394Z,83.68
2022-10-30T03:21:22.557Z,84.55
2022-10-30T03:23:50.608Z,84.50
2022-10-30T03:26:18.928Z,85.10
2022-10-30T03:28:51.539Z,86.11
2022-10-30T03:31:19.922Z,86.24
2022-10-30T03:33:51.164Z,84.94
2022-10-30T03:36:18.357Z,85.96
2022-10-30T03:38:44.914Z,84.13
2022-10-30T03:41:15.327Z,86.00
2022-10-30T03:43:43.459Z,85.32
2022-10-30T03:46:11.298Z,86.30
2022-10-30T03:48:38.402Z,86.37
2022-10-30T03:51:05.146Z,87.03
2022-10-30T03:53:31.794Z,86.00
2022-10-30T03:56:01.200Z,87.17
2022-10-30T03:58:35.542Z,86.79
2022-10-30T04:01:07.611Z,86.57
2022-10-30T04:03:38.224Z,86.74
2022-10-30T04:06:06.935Z,85.66
2022-10-30T04:08:33.744Z,86.19
2022-10-30T04:11:01.809Z,84.84
2022-10-30T04:13:28.533Z,84.62
2022-10-30T04:15:58.040Z,85.31
2022-10-30T04:18:26.128Z,85.34
2022-10-30T04:20:53.836Z,84.36
2022-10-30T04:23:21.753Z,84.59
2022-10-30T04:25:48.926Z,85.74
2022-10-30T04:28:15.921Z,86.01
2022-10-30T04:30:43.214Z,85.51
2022-10-30T04:33:13.846Z,85.12
2022-10-30T04:35:41.471Z,86.48
2022-10-30T04:38:14.355Z,86.54
2022-10-30T04:40:43.623Z,88.03
2022-10-30T04:43:12.928Z,89.06
2022-10-30T04:45:40.735Z,88.31
2022-10-30T04:48:15.170Z,88.46
2022-10-30T04:50:43.812Z,89.33
2022-10-30T04:53:19.089Z,88.97
2022-10-30T04:55:48.094Z,87.71
2022-10-30T04:58:15.235Z,87.48
2022-10-30T05:00:46.032Z,87.73
2022-10-30T05:03:24.780Z,87.43
2022-10-30T05:06:04.768Z,85.91
2022-10-30T05:08:32.015Z,87.71
2022-10-30T05:11:04.932Z,87.87
2022-10-30T05:13:32.322Z,87.59
2022-10-30T05:15:58.939Z,88.36
2022-10-30T05:18:25.644Z,89.15
2022-10-30T05:20:52.577Z,88.42
2022-10-30T05:23:19.179Z,88.92
2022-10-30T05:25:45.804Z,88.06
2022-10-30T05:28:14.520Z,88.45
2022-10-30T05:30:46.064Z,88.41
2022-10-30T05:33:28.037Z,88.66
2022-10-30T05:35:54.690Z,89.11
2022-10-30T05:38:21.277Z,87.86
2022-10-30T05:40:48.303Z,89.97
2022-10-30T05:43:14.966Z,90.06
2022-10-30T05:45:41.622Z,88.54
2022-10-30T05:48:08.363Z,89.45
2022-10-30T05:50:41.801Z,89.88
2022-10-30T05:53:28.654Z,89.52
2022-10-30T05:55:58.033Z,89.05
2022-10-30T05:58:25.680Z,88.70
2022-10-30T06:00:54.662Z,90.31
2022-10-30T06:03:36.860Z,91.13
2022-10-30T06:06:03.739Z,90.80
2022-10-30T06:08:30.977Z,89.74
2022-10-30T06:11:00.267Z,88.84
2022-10-30T06:13:34.278Z,89.84
2022-10-30T06:16:11.475Z,88.51
2022-10-30T06:18:56.260Z,88.83
2022-10-30T06:21:23.806Z,89.45
2022-10-30T06:23:59.000Z,89.17
2022-10-30T06:26:43.015Z,90.23
2022-10-30T06:29:13.252Z,90.13
2022-10-30T06:31:40.889Z,89.53
2022-10-30T06:34:07.494Z,90.66
2022-10-30T06:36:36.684Z,89.55
2022-10-30T06:39:04.244Z,90.19
2022-10-30T06:41:38.363Z,90.07
2022-10-30T06:44:18.622Z,89.62
2022-10-30T06:46:45.269Z,89.93
2022-10-30T06:49:12.234Z,89.70
2022-10-30T06:51:39.646Z,88.98
2022-10-30T06:54:06.408Z,88.39
2022-10-30T06:56:38.899Z,87.55
2022-10-30T06:59:29.871Z,89.65
2022-10-30T07:02:16.936Z,89.46
2022-10-30T07:04:47.738Z,89.99
2022-10-30T07:07:15.149Z,90.22
2022-10-30T07:09:42.295Z,89.88
2022-10-30T07:12:09.361Z,90.05
2022-10-30T07:14:57.479Z,89.79
2022-10-30T07:17:57.456Z,89.02
2022-10-30T07:20:27.285Z,89.36
2022-10-30T07:22:54.028Z,89.22
2022-10-30T07:25:21.105Z,89.51
2022-10-30T07:27:57.217Z,88.79
2022-10-30T07:30:33.544Z,90.16
2022-10-30T07:33:29.177Z,87.54
2022-10-30T07:36:02.002Z,85.64
2022-10-30T07:39:03.773Z,83.13
2022-10-30T07:41:34.877Z,82.58
2022-10-30T07:44:20.276Z,84.39
2022-10-30T07:46:52.951Z,82.34
2022-10-30T07:49:38.252Z,82.23
2022-10-30T07:52:06.382Z,82.49
2022-10-30T07:54:33.757Z,77.86
2022-10-30T07:57:14.163Z,75.22
2022-10-30T08:00:05.987Z,74.31
2022-10-30T08:02:51.965Z,71.39
2022-10-30T08:05:30.024Z,68.49
2022-10-30T08:08:05.939Z,68.66
2022-10-30T08:10:32.879Z,68.78
2022-10-30T08:12:59.522Z,68.78
2022-10-30T08:15:26.520Z,68.36
2022-10-30T08:17:54.168Z,67.32
2022-10-30T08:20:24.449Z,67.96
2022-10-30T08:22:55.609Z,65.33
2022-10-30T08:25:28.843Z,66.38
2022-10-30T08:28:03.618Z,65.20
2022-10-30T08:30:36.470Z,66.58
2022-10-30T08:33:06.971Z,64.01
2022-10-30T08:35:54.502Z,63.81
2022-10-30T08:38:21.114Z,63.75
2022-10-30T08:40:57.745Z,63.73
2022-10-30T08:43:25.372Z,60.96
2022-10-30T08:45:52.283Z,63.66
2022-10-30T08:48:21.278Z,62.69
2022-10-30T08:50:47.888Z,62.22
2022-10-30T08:53:20.508Z,59.58
2022-10-30T08:55:48.115Z,60.43
2022-10-30T08:58:26.360Z,60.91
2022-10-30T09:00:55.993Z,59.90
2022-10-30T09:03:55.693Z,59.16
2022-10-30T09:06:48.501Z,58.48
2022-10-30T09:09:33.680Z,57.84
2022-10-30T09:12:02.597Z,58.61
2022-10-30T09:14:34.183Z,57.08
2022-10-30T09:17:00.777Z,56.76
2022-10-30T09:19:28.904Z,56.18
2022-10-30T09:21:57.681Z,54.24
2022-10-30T09:24:24.364Z,53.03
2022-10-30T09:26:51.076Z,55.76
2022-10-30T09:29:23.456Z,55.49
2022-10-30T09:31:56.053Z,55.87
2022-10-30T09:34:24.882Z,54.85
2022-10-30T09:37:01.911Z,55.24
2022-10-30T09:39:30.971Z,54.98
2022-10-30T09:42:20.295Z,53.69
2022-10-30T09:45:29.662Z,53.24
2022-10-30T09:48:11.315Z,52.51
2022-10-30T09:51:23.276Z,52.70
2022-10-30T09:54:15.381Z,52.30
2022-10-30T09:56:50.460Z,50.20
2022-10-30T09:59:33.321Z,49.59
2022-10-30T10:02:28.698Z,50.12
2022-10-30T10:05:11.670Z,50.15
2022-10-30T10:08:10.179Z,50.11
2022-10-30T10:11:04.273Z,50.96
2022-10-30T10:13:38.468Z,50.20
2022-10-30T10:16:22.758Z,49.10
2022-10-30T10:18:58.393Z,48.33
2022-10-30T10:21:27.369Z,49.27
2022-10-30T10:24:01.458Z,49.05
2022-10-30T10:26:40.842Z,50.55
2022-10-30T10:29:15.143Z,49.98
2022-10-30T10:32:03.289Z,49.98
2022-10-30T10:34:45.871Z,50.07
2022-10-30T10:37:41.571Z,48.80
2022-10-30T10:40:23.533Z,48.30
2022-10-30T10:43:14.808Z,48.76
2022-10-30T10:45:46.857Z,49.09
2022-10-30T10:48:36.935Z,49.58
2022-10-30T10:51:20.820Z,49.25
2022-10-30T10:54:01.812Z,51.25
2022-10-30T10:56:34.152Z,49.18
2022-10-30T10:59:04.886Z,49.81
2022-10-30T11:01:40.381Z,49.94
2022-10-30T11:04:24.181Z,50.07
2022-10-30T11:06:54.167Z,49.30
2022-10-30T11:09:23.323Z,48.89
2022-10-30T11:11:52.482Z,49.34
2022-10-30T11:14:22.043Z,49.26
2022-10-30T11:17:19.479Z,49.04
2022-10-30T11:19:51.802Z,50.28
2022-10-30T11:22:25.730Z,49.10
2022-10-30T11:24:52.359Z,49.66
2022-10-30T11:27:24.917Z,48.73
2022-10-30T11:30:05.990Z,49.26
2022-10-30T11:32:34.350Z,50.07
2022-10-30T11:35:08.330Z,51.07
2022-10-30T11:37:37.189Z,51.13
2022-10-30T11:40:17.423Z,52.93
2022-10-30T11:42:48.395Z,52.25
2022-10-30T11:45:18.926Z,52.62
2022-10-30T11:47:47.128Z,52.69
2022-10-30T11:50:21.143Z,53.20
2022-10-30T11:52:51.138Z,53.57
2022-10-30T11:55:23.226Z,52.75
2022-10-30T11:57:57.423Z,54.03
2022-10-30T12:00:27.445Z,53.17
2022-10-30T12:02:57.076Z,52.94
2022-10-30T12:05:27.153Z,52.00
2022-10-30T12:08:10.863Z,51.83
2022-10-30T12:10:50.558Z,51.38
2022-10-30T12:13:20.327Z,51.51
2022-10-30T12:15:49.891Z,50.68
2022-10-30T12:20:57.950Z,50.34
2022-10-30T12:23:28.385Z,49.83
2022-10-30T12:25:59.006Z,49.65
2022-10-30T12:28:28.510Z,49.41
2022-10-30T12:31:00.861Z,49.11
2022-10-30T12:33:50.971Z,49.10
2022-10-30T12:36:22.555Z,47.98
2022-10-30T12:38:57.650Z,46.34
2022-10-30T12:41:31.908Z,46.85
2022-10-30T12:44:08.295Z,47.53
2022-10-30T12:46:49.969Z,49.57
2022-10-30T12:49:28.695Z,48.31
2022-10-30T12:52:09.171Z,47.34
2022-10-30T12:55:01.178Z,47.39
2022-10-30T12:57:33.521Z,47.95
2022-10-30T13:00:04.838Z,49.28
2022-10-30T13:03:05.697Z,48.48
2022-10-30T13:06:02.367Z,48.60
2022-10-30T13:08:34.690Z,48.70
2022-10-30T13:11:04.491Z,49.08
2022-10-30T13:13:39.383Z,49.85
2022-10-30T13:16:36.115Z,49.72
2022-10-30T13:19:03.748Z,49.98
2022-10-30T13:21:39.603Z,49.97
2022-10-30T13:24:12.220Z,50.10
2022-10-30T13:26:53.730Z,50.06
2022-10-30T13:29:45.150Z,50.01
2022-10-30T13:32:23.950Z,51.32
2022-10-30T13:35:01.713Z,52.09
2022-10-30T13:37:36.468Z,51.80
2022-10-30T13:40:17.281Z,51.81
2022-10-30T13:43:01.727Z,51.09
2022-10-30T13:45:30.981Z,52.67
2022-10-30T13:48:26.697Z,52.33
2022-10-30T13:51:18.286Z,52.09
2022-10-30T13:53:48.746Z,52.10
2022-10-30T13:56:18.962Z,53.90
2022-10-30T13:59:23.608Z,54.57
2022-10-30T14:02:04.001Z,54.57
2022-10-30T14:04:39.352Z,55.22
2022-10-30T14:07:28.270Z,55.54
2022-10-30T14:10:20.043Z,54.50
2022-10-30T14:12:46.637Z,54.57
2022-10-30T14:15:26.310Z,53.60
2022-10-30T14:18:11.713Z,53.15
2022-10-30T14:20:46.374Z,51.73
2022-10-30T14:23:33.964Z,50.83
2022-10-30T14:26:06.419Z,51.58
2022-10-30T14:28:35.913Z,50.90
2022-10-30T14:31:03.569Z,50.57
2022-10-30T14:33:46.733Z,47.82
2022-10-30T14:36:18.144Z,48.44
2022-10-30T14:39:21.474Z,46.84
2022-10-30T14:42:13.691Z,47.53
2022-10-30T14:44:58.890Z,49.01
2022-10-30T14:47:44.360Z,50.36
2022-10-30T14:50:20.094Z,51.70
2022-10-30T14:52:49.508Z,52.07
2022-10-30T14:55:28.284Z,51.15
2022-10-30T14:58:03.955Z,52.37
2022-10-30T15:00:39.628Z,53.12
2022-10-30T15:03:48.812Z,54.03
2022-10-30T15:06:43.556Z,55.12
2022-10-30T15:09:22.520Z,57.57
2022-10-30T15:12:22.365Z,58.52
2022-10-30T15:14:59.394Z,60.94
2022-10-30T15:17:40.080Z,62.04
2022-10-30T15:20:14.494Z,61.86
2022-10-30T15:22:42.062Z,63.22
2022-10-30T15:25:20.129Z,64.70
2022-10-30T15:27:51.673Z,63.44
2022-10-30T15:30:24.047Z,64.37
2022-10-30T15:32:51.316Z,65.21
2022-10-30T15:35:20.749Z,66.94
2022-10-30T15:38:06.465Z,68.16
2022-10-30T15:40:39.519Z,67.97
2022-10-30T15:43:10.610Z,68.34
2022-10-30T15:45:47.588Z,68.10
2022-10-30T15:48:28.038Z,68.40
2022-10-30T15:51:03.949Z,71.11
2022-10-30T15:53:43.726Z,70.99
2022-10-30T15:56:33.679Z,70.75
2022-10-30T15:59:04.952Z,71.12
2022-10-30T16:01:42.755Z,70.66
2022-10-30T16:04:16.702Z,71.46
2022-10-30T16:07:00.916Z,71.61
2022-10-30T16:09:28.730Z,70.65
2022-10-30T16:11:58.935Z,73.86
2022-10-30T16:14:28.298Z,73.19
2022-10-30T16:16:55.266Z,72.09
2022-10-30T16:19:31.263Z,74.00
2022-10-30T16:21:58.762Z,72.84
2022-10-30T16:24:34.293Z,73.73
2022-10-30T16:27:18.386Z,74.74
2022-10-30T16:29:53.998Z,75.14
2022-10-30T16:32:29.260Z,74.67
2022-10-30T16:35:00.903Z,74.66
2022-10-30T16:37:36.681Z,74.31
2022-10-30T16:40:12.400Z,76.41
2022-10-30T16:42:39.671Z,75.41
2022-10-30T16:45:12.419Z,75.64
2022-10-30T16:47:43.460Z,75.79
2022-10-30T16:50:14.562Z,77.53
2022-10-30T16:52:42.573Z,78.52
2022-10-30T16:55:20.965Z,78.00
2022-10-30T16:57:59.402Z,78.07
2022-10-30T17:00:31.545Z,76.94
2022-10-30T17:03:08.210Z,77.85
2022-10-30T17:05:36.923Z,76.41
2022-10-30T17:08:09.124Z,78.11
2022-10-30T17:10:43.539Z,78.69
2022-10-30T17:13:29.097Z,79.19
2022-10-30T17:15:56.329Z,79.87
2022-10-30T17:18:31.403Z,80.31
2022-10-30T17:21:22.735Z,81.41
2022-10-30T17:23:52.280Z,81.68
2022-10-30T17:26:19.530Z,80.64
2022-10-30T17:28:47.269Z,79.75
2022-10-30T17:31:50.090Z,81.14
2022-10-30T17:34:18.939Z,80.79
2022-10-30T17:36:47.266Z,82.43
2022-10-30T17:39:14.435Z,81.61
2022-10-30T17:41:42.358Z,81.28
2022-10-30T17:44:18.614Z,83.58
2022-10-30T17:46:45.296Z,81.95
2022-10-30T17:49:25.198Z,82.81
2022-10-30T17:51:51.829Z,84.33
2022-10-30T17:54:18.472Z,82.79
2022-10-30T17:56:45.092Z,83.15
2022-10-30T17:59:11.681Z,83.27
2022-10-30T18:01:38.479Z,83.60
2022-10-30T18:04:15.046Z,83.67
2022-10-30T18:06:44.617Z,84.33
2022-10-30T18:09:12.678Z,84.81
2022-10-30T18:11:39.602Z,85.43
2022-10-30T18:14:06.499Z,84.96
2022-10-30T18:16:33.182Z,83.94
2022-10-30T18:18:59.891Z,83.75
2022-10-30T18:21:27.570Z,84.96
2022-10-30T18:23:55.263Z,85.18
2022-10-30T18:26:24.517Z,84.85
2022-10-30T18:28:51.563Z,85.32
2022-10-30T18:31:20.996Z,85.27
2022-10-30T18:33:48.324Z,85.51
2022-10-30T18:36:21.161Z,85.23
2022-10-30T18:38:48.259Z,85.73
2022-10-30T18:41:36.667Z,85.38
2022-10-30T18:44:03.594Z,86.35
2022-10-30T18:46:32.608Z,86.92
2022-10-30T18:48:59.385Z,86.22
2022-10-30T18:51:27.628Z,85.35
2022-10-30T18:53:56.750Z,86.34
2022-10-30T18:56:26.617Z,85.03
2022-10-30T18:58:56.702Z,86.86
2022-10-30T19:01:28.471Z,86.29
2022-10-30T19:03:55.187Z,85.76
2022-10-30T19:06:23.838Z,85.93
2022-10-30T19:08:50.537Z,86.86
2022-10-30T19:11:24.253Z,88.22
2022-10-30T19:13:53.436Z,87.38
2022-10-30T19:16:21.365Z,88.81
2022-10-30T19:18:48.601Z,87.91
2022-10-30T19:21:23.031Z,85.69
2022-10-30T19:23:49.823Z,87.38
2022-10-30T19:26:17.520Z,86.64
2022-10-30T19:28:45.458Z,88.23
2022-10-30T19:31:17.657Z,87.23
2022-10-30T19:33:44.884Z,86.78
2022-10-30T19:36:31.032Z,87.62
2022-10-30T19:38:57.896Z,87.22
2022-10-30T19:41:24.865Z,87.67
2022-10-30T19:43:52.582Z,87.66
2022-10-30T19:46:19.807Z,87.48
2022-10-30T19:49:01.855Z,87.39
2022-10-30T19:51:28.880Z,88.99
2022-10-30T19:53:56.033Z,87.84
2022-10-30T19:56:22.777Z,87.07
2022-10-30T19:58:49.786Z,86.64
2022-10-30T20:01:16.920Z,87.57
2022-10-30T20:03:43.870Z,88.33
2022-10-30T20:06:14.142Z,89.08
2022-10-30T20:08:40.845Z,87.40
2022-10-30T20:11:07.491Z,88.20
2022-10-30T20:13:34.210Z,88.28
2022-10-30T20:16:02.890Z,87.96
2022-10-30T20:18:31.660Z,87.74
2022-10-30T20:21:00.982Z,87.47
2022-10-30T20:23:28.536Z,87.89
2022-10-30T20:25:59.995Z,87.79
2022-10-30T20:28:41.640Z,89.34
2022-10-30T20:31:10.731Z,88.88
2022-10-30T20:33:37.474Z,87.97
2022-10-30T20:36:04.713Z,88.41
2022-10-30T20:38:33.426Z,89.35
2022-10-30T20:41:02.718Z,90.02
2022-10-30T20:43:39.269Z,89.17
2022-10-30T20:46:10.937Z,89.83
2022-10-30T20:48:39.281Z,90.07
2022-10-30T20:51:06.806Z,89.77
2022-10-30T20:53:34.274Z,90.72
2022-10-30T20:56:00.959Z,91.28
2022-10-30T20:58:28.013Z,89.98
2022-10-30T21:00:58.019Z,90.62
2022-10-30T21:03:26.055Z,89.67
2022-10-30T21:06:01.643Z,89.17
2022-10-30T21:08:33.932Z,89.37
2022-10-30T21:11:02.341Z,88.42
2022-10-30T21:13:29.113Z,88.58
2022-10-30T21:16:01.003Z,89.67
2022-10-30T21:18:27.654Z,89.48
2022-10-30T21:20:54.239Z,88.77
2022-10-30T21:23:20.809Z,87.67
2022-10-30T21:25:47.407Z,87.50
2022-10-30T21:28:14.043Z,87.31
2022-10-30T21:30:40.663Z,86.56
2022-10-30T21:33:07.227Z,85.77
2022-10-30T21:35:33.873Z,85.64
2022-10-30T21:38:01.567Z,84.92
2022-10-30T21:40:28.210Z,84.59
2022-10-30T21:42:58.472Z,85.11
2022-10-30T21:45:28.028Z,84.56
2022-10-30T21:47:54.604Z,85.22
2022-10-30T21:50:21.164Z,86.07
2022-10-30T21:52:47.752Z,86.39
2022-10-30T21:55:14.334Z,87.17
2022-10-30T21:57:40.942Z,87.96
2022-10-30T22:00:08.141Z,88.16
2022-10-30T22:02:36.002Z,88.04
2022-10-30T22:05:02.614Z,88.10
2022-10-30T22:07:29.236Z,89.46
2022-10-30T22:09:55.883Z,88.80
2022-10-30T22:12:22.494Z,90.09
2022-10-30T22:14:49.073Z,89.88
2022-10-30T22:17:15.806Z,91.32
2022-10-30T22:19:42.392Z,89.09
2022-10-30T22:22:09.270Z,88.22
2022-10-30T22:24:35.883Z,87.14
2022-10-30T22:27:02.595Z,86.05
2022-10-30T22:29:29.163Z,86.56
2022-10-30T22:31:55.914Z,86.54
2022-10-30T22:34:22.481Z,86.58
2022-10-30T22:36:49.086Z,88.28
2022-10-30T22:39:16.002Z,88.36
2022-10-30T22:41:42.616Z,88.20
2022-10-30T22:44:13.457Z,88.07
2022-10-30T22:46:40.749Z,88.12
2022-10-30T22:49:07.972Z,87.89
2022-10-30T22:51:37.253Z,87.42
2022-10-30T22:54:06.182Z,87.51
2022-10-30T22:56:34.800Z,88.22
2022-10-30T22:59:03.924Z,87.78
2022-10-30T23:01:32.881Z,89.13
2022-10-30T23:04:01.312Z,89.45
2022-10-30T23:06:30.161Z,89.48
2022-10-30T23:08:58.676Z,90.44
2022-10-30T23:11:26.451Z,90.73
2022-10-30T23:13:53.111Z,90.67
2022-10-30T23:16:22.079Z,90.63
2022-10-30T23:18:49.643Z,88.11
2022-10-30T23:21:19.840Z,89.94
2022-10-30T23:23:46.713Z,89.02
2022-10-30T23:26:16.604Z,89.58
2022-10-30T23:28:44.550Z,90.06
2022-10-30T23:31:29.058Z,90.16
2022-10-30T23:34:00.370Z,90.04
2022-10-30T23:36:27.377Z,90.21
2022-10-30T23:39:00.057Z,90.17
2022-10-30T23:41:29.387Z,90.66
2022-10-30T23:43:58.006Z,89.98
2022-10-30T23:46:25.157Z,90.49
2022-10-30T23:48:52.084Z,90.58
2022-10-30T23:51:19.155Z,91.24
2022-10-30T23:53:45.752Z,90.39
2022-10-30T23:56:12.927Z,91.70
2022-10-30T23:58:43.134Z,91.97
